Terminal Aerodrome Forecast
Issued by NWS Atlanta, GA

Home | Current Version | Previous Version | Text Only | Print | Product List | Glossary On
Versions: 1 2 3 4 5 6 7 8 9 10 11 12 13 14 15 16 17 18 19 20 21 22 23 24 25 26 27 28 29
159
FTUS42 KFFC 161136
TAFAHN
TAF
KAHN 161136Z 1612/1712 00000KT P6SM FEW200
     FM161500 23003KT P6SM FEW120
     FM170000 27005KT P6SM BKN040 BKN100
     FM170200 29007KT P6SM OVC025 PROB30 1702/1708 5SM -SN BR BKN035
     FM170800 29009KT P6SM BKN040 BKN100=

USA.gov is the U.S. government's official web portal to all federal, state and local government web resources and services.